Time;durP1;ratioP1;P1;durP2;ratioP2;P2;SDS_P1;SDS_P2;PMS_P1;PMS_P2;Temp;Humidity;BMP_temperature;BMP_pressure;BME280_temperature;BME280_humidity;BME280_pressure;Samples;Min_cycle;Max_cycle;Signal;HPM_P1;HPM_P2
2022/03/16 00:02:23;;;;;;;24.43;19.43;;;;;;;4.04;82.52;101233.94;5102909;28;20446;-63
2022/03/16 00:04:50;;;;;;;27.07;19.03;;;;;;;4.21;82.08;101217.25;5101528;28;20478;-62
2022/03/16 00:07:18;;;;;;;25.53;18.47;;;;;;;4.32;81.34;101230.78;5102319;28;20463;-63
2022/03/16 00:09:45;;;;;;;36.73;22.60;;;;;;;4.19;81.12;101221.75;5100683;28;20510;-63
2022/03/16 00:12:12;;;;;;;26.90;17.23;;;;;;;4.28;80.93;101231.88;5083851;28;20444;-63
2022/03/16 00:14:39;;;;;;;28.87;18.97;;;;;;;4.24;80.55;101227.69;5102104;28;20431;-63
2022/03/16 00:17:07;;;;;;;29.30;18.73;;;;;;;4.22;80.23;101233.03;5101963;28;20451;-63
2022/03/16 00:19:35;;;;;;;25.27;18.50;;;;;;;4.10;79.80;101238.94;5100838;28;20485;-63
2022/03/16 00:22:04;;;;;;;26.10;18.07;;;;;;;4.07;79.69;101241.72;5103045;28;20477;-63
2022/03/16 00:24:31;;;;;;;25.50;17.57;;;;;;;4.11;79.14;101243.28;5102887;28;20569;-63
2022/03/16 00:26:58;;;;;;;22.87;17.20;;;;;;;4.11;78.55;101245.94;5102885;28;20427;-63
2022/03/16 00:29:25;;;;;;;26.10;18.70;;;;;;;4.10;78.45;101250.38;5102263;28;20482;-63
2022/03/16 00:31:52;;;;;;;24.20;18.93;;;;;;;4.19;78.04;101249.06;5102659;28;20482;-64
2022/03/16 00:34:19;;;;;;;25.73;17.93;;;;;;;4.18;77.97;101251.78;5102692;28;20455;-64
2022/03/16 00:36:47;;;;;;;26.60;18.63;;;;;;;4.14;77.81;101249.28;5102194;28;20440;-64
2022/03/16 00:39:14;;;;;;;24.80;16.63;;;;;;;4.07;77.62;101253.16;5102462;28;20470;-63
2022/03/16 00:41:41;;;;;;;27.23;18.03;;;;;;;4.01;77.80;101260.53;5102351;28;20550;-63
2022/03/16 00:44:08;;;;;;;25.10;18.00;;;;;;;3.95;77.74;101266.97;5102610;28;20459;-63
2022/03/16 00:46:36;;;;;;;24.83;16.90;;;;;;;3.86;77.70;101273.56;5102171;28;20446;-63
2022/03/16 00:49:03;;;;;;;23.50;17.00;;;;;;;3.77;77.47;101277.50;5102373;28;20492;-63
2022/03/16 00:51:30;;;;;;;21.23;16.40;;;;;;;3.78;77.91;101275.72;5102455;28;20475;-63
2022/03/16 00:53:58;;;;;;;23.37;17.53;;;;;;;3.76;77.94;101274.94;5102449;28;20427;-63
2022/03/16 00:56:25;;;;;;;24.10;16.67;;;;;;;3.75;77.99;101279.38;5102313;28;20465;-63
2022/03/16 00:58:52;;;;;;;25.47;17.50;;;;;;;3.75;78.26;101278.53;5101664;28;20549;-63
2022/03/16 01:01:18;;;;;;;23.47;18.40;;;;;;;3.80;78.11;101268.56;5102265;28;20459;-63
2022/03/16 01:03:45;;;;;;;21.87;17.57;;;;;;;3.92;77.86;101277.72;5102289;28;20446;-63
2022/03/16 01:06:15;;;;;;;26.13;16.73;;;;;;;3.88;77.55;101281.44;5101576;28;20442;-63
2022/03/16 01:08:42;;;;;;;28.97;17.43;;;;;;;3.81;77.39;101274.72;5102256;28;20474;-63
2022/03/16 01:11:10;;;;;;;30.87;17.57;;;;;;;3.71;77.28;101274.28;5101938;28;20496;-63
2022/03/16 01:13:37;;;;;;;25.20;16.80;;;;;;;3.65;77.65;101272.78;5101068;28;20469;-63
2022/03/16 01:16:05;;;;;;;25.80;17.63;;;;;;;3.54;78.22;101272.41;5102398;28;20785;-64
2022/03/16 01:18:31;;;;;;;24.87;16.07;;;;;;;3.44;78.52;101269.34;5101584;28;20994;-63
2022/03/16 01:20:58;;;;;;;23.37;17.33;;;;;;;3.38;78.50;101265.16;5101262;28;20451;-63
2022/03/16 01:23:25;;;;;;;21.23;17.40;;;;;;;3.34;78.45;101270.69;5101569;28;20446;-63
2022/03/16 01:25:51;;;;;;;26.20;16.23;;;;;;;3.27;78.44;101264.81;5101919;28;20454;-64
2022/03/16 01:28:19;;;;;;;27.47;16.13;;;;;;;3.26;78.28;101263.09;5101683;28;20443;-64
2022/03/16 01:30:46;;;;;;;22.40;15.87;;;;;;;3.40;77.80;101262.47;5101272;28;20448;-64
2022/03/16 01:33:13;;;;;;;20.93;14.67;;;;;;;3.44;77.45;101263.19;5101738;28;21078;-64
2022/03/16 01:35:39;;;;;;;20.83;15.20;;;;;;;3.52;76.94;101268.97;5101082;28;20474;-63
2022/03/16 01:38:06;;;;;;;20.87;14.80;;;;;;;3.50;76.83;101266.41;5102028;28;20443;-63
2022/03/16 01:40:33;;;;;;;23.30;14.97;;;;;;;3.45;76.80;101265.75;5101320;28;20451;-63
2022/03/16 01:42:59;;;;;;;20.23;15.20;;;;;;;3.34;77.00;101260.13;5101101;28;20471;-63
2022/03/16 01:45:27;;;;;;;20.53;15.43;;;;;;;3.31;77.12;101263.72;5101460;28;20473;-64
2022/03/16 01:47:54;;;;;;;22.90;16.30;;;;;;;3.31;77.34;101266.38;5101377;28;20447;-64
2022/03/16 01:50:21;;;;;;;19.27;15.73;;;;;;;3.26;77.48;101265.72;5101302;28;20526;-64
2022/03/16 01:52:47;;;;;;;23.47;17.40;;;;;;;3.26;77.95;101268.38;5101933;28;20438;-64
2022/03/16 01:55:14;;;;;;;21.13;16.20;;;;;;;3.25;78.24;101260.53;5100850;28;20456;-64
2022/03/16 01:57:42;;;;;;;29.50;17.40;;;;;;;3.28;78.42;101263.91;5100902;28;20447;-63
2022/03/16 02:00:09;;;;;;;24.53;16.90;;;;;;;3.32;78.36;101268.09;5101199;28;20554;-63
2022/03/16 02:02:37;;;;;;;26.90;16.47;;;;;;;3.39;78.31;101266.91;5101250;28;20585;-63
2022/03/16 02:05:04;;;;;;;20.33;17.70;;;;;;;3.35;78.04;101270.63;5101123;28;20462;-63
2022/03/16 02:07:31;;;;;;;21.03;17.73;;;;;;;3.32;77.96;101273.41;5100525;28;20451;-63
2022/03/16 02:10:01;;;;;;;28.50;17.60;;;;;;;3.25;77.83;101261.38;5100783;28;20475;-63
2022/03/16 02:12:28;;;;;;;20.97;16.93;;;;;;;3.18;78.05;101267.88;5100474;28;20526;-63
2022/03/16 02:14:54;;;;;;;22.87;15.87;;;;;;;3.18;78.18;101268.72;5100841;28;20439;-63
2022/03/16 02:17:21;;;;;;;25.00;18.03;;;;;;;3.20;77.85;101271.31;5100797;28;20458;-64
2022/03/16 02:19:49;;;;;;;22.73;15.90;;;;;;;3.14;78.13;101282.13;5100207;28;20439;-63
2022/03/16 02:22:17;;;;;;;24.07;17.30;;;;;;;3.13;77.98;101280.44;5101531;28;20443;-63
2022/03/16 02:24:45;;;;;;;25.53;17.30;;;;;;;3.13;77.62;101278.63;5101350;28;20455;-64
2022/03/16 02:27:12;;;;;;;22.77;16.43;;;;;;;3.08;77.63;101277.13;5100517;28;20471;-63
2022/03/16 02:29:39;;;;;;;32.40;18.90;;;;;;;3.06;77.68;101279.84;5100561;28;20485;-63
2022/03/16 02:32:07;;;;;;;21.87;17.07;;;;;;;2.96;78.03;101275.88;5100721;28;21165;-64
2022/03/16 02:34:37;;;;;;;23.97;16.33;;;;;;;2.92;78.26;101269.03;5100958;28;20455;-63
2022/03/16 02:37:04;;;;;;;24.10;16.60;;;;;;;2.56;78.93;101270.50;5100765;28;21015;-63
2022/03/16 02:39:30;;;;;;;27.53;17.03;;;;;;;2.72;79.22;101268.06;5100826;28;20435;-64
2022/03/16 02:41:58;;;;;;;23.37;15.47;;;;;;;2.83;78.44;101265.84;5100993;28;20518;-63
2022/03/16 02:44:25;;;;;;;24.03;17.43;;;;;;;2.92;78.38;101266.38;5100723;28;20455;-64
2022/03/16 02:46:52;;;;;;;20.10;16.57;;;;;;;2.99;78.63;101263.41;5101348;28;20462;-64
2022/03/16 02:49:18;;;;;;;25.77;16.90;;;;;;;3.07;78.00;101264.84;5099945;28;21021;-64
2022/03/16 02:51:45;;;;;;;27.37;18.37;;;;;;;3.00;78.49;101267.75;5100528;28;20466;-64
2022/03/16 02:54:12;;;;;;;32.73;19.43;;;;;;;3.05;78.44;101267.53;5100752;28;20880;-64
2022/03/16 02:56:38;;;;;;;23.00;16.47;;;;;;;2.97;78.54;101267.88;5100838;28;20459;-64
2022/03/16 02:59:06;;;;;;;26.60;15.90;;;;;;;2.74;78.94;101254.81;5099747;28;20449;-64
2022/03/16 03:01:33;;;;;;;24.40;16.87;;;;;;;2.53;79.74;101248.66;5085160;28;20451;-64
2022/03/16 03:04:00;;;;;;;22.10;17.80;;;;;;;2.42;80.28;101249.13;5094514;28;20532;-63
2022/03/16 03:06:27;;;;;;;23.80;17.70;;;;;;;2.53;80.03;101265.34;5100648;28;20446;-63
2022/03/16 03:08:54;;;;;;;22.03;17.03;;;;;;;2.58;79.43;101246.69;5100464;28;20447;-63
2022/03/16 03:11:20;;;;;;;22.70;17.00;;;;;;;2.52;79.13;101261.00;5099918;28;20481;-63
2022/03/16 03:13:47;;;;;;;23.30;17.00;;;;;;;2.53;78.69;101267.13;5099689;28;20474;-62
2022/03/16 03:16:15;;;;;;;24.67;18.57;;;;;;;2.51;78.41;101276.91;5101025;28;20462;-63
2022/03/16 03:18:42;;;;;;;30.40;19.00;;;;;;;2.48;78.35;101277.88;5101014;28;20443;-63
2022/03/16 03:21:08;;;;;;;27.03;18.37;;;;;;;2.50;78.70;101275.16;5084130;28;20462;-63
2022/03/16 03:23:35;;;;;;;30.07;18.67;;;;;;;2.53;79.04;101275.91;5084886;28;20435;-63
2022/03/16 03:26:02;;;;;;;28.33;18.27;;;;;;;2.58;79.31;101279.22;5103697;28;20921;-64
2022/03/16 03:28:29;;;;;;;27.43;18.57;;;;;;;2.57;79.55;101274.00;5102976;28;20977;-63
2022/03/16 03:30:55;;;;;;;29.67;19.93;;;;;;;2.56;79.26;101275.78;5103274;28;20506;-63
2022/03/16 03:33:24;;;;;;;24.50;18.10;;;;;;;2.49;79.47;101271.69;5104209;28;20463;-63
2022/03/16 03:35:50;;;;;;;26.60;19.17;;;;;;;2.55;79.71;101276.72;5104152;28;20477;-64
2022/03/16 03:38:17;;;;;;;29.70;18.13;;;;;;;2.55;79.45;101287.28;5104457;28;20427;-63
2022/03/16 03:40:44;;;;;;;24.37;16.70;;;;;;;2.56;79.31;101288.97;5103325;28;20504;-64
2022/03/16 03:43:11;;;;;;;28.73;19.53;;;;;;;2.57;79.12;101284.56;5102926;28;20459;-64
2022/03/16 03:45:37;;;;;;;29.17;19.80;;;;;;;2.37;79.17;101280.97;5104391;28;20443;-64
2022/03/16 03:48:05;;;;;;;21.83;16.93;;;;;;;2.10;80.23;101276.78;5103247;28;20474;-64
2022/03/16 03:50:33;;;;;;;20.57;15.43;;;;;;;1.96;80.51;101278.22;5103617;28;20579;-63
2022/03/16 03:52:59;;;;;;;23.27;15.40;;;;;;;1.83;80.77;101277.81;5103686;28;20439;-63
2022/03/16 03:55:26;;;;;;;22.77;16.20;;;;;;;1.95;80.86;101280.91;5103207;28;20474;-62
2022/03/16 03:57:53;;;;;;;26.70;17.80;;;;;;;2.16;80.28;101280.06;5103388;28;20443;-62
2022/03/16 04:00:20;;;;;;;22.07;14.53;;;;;;;2.23;79.48;101278.88;5103163;28;21017;-62
2022/03/16 04:02:48;;;;;;;24.97;16.90;;;;;;;2.12;79.35;101294.28;5103929;28;20475;-62
2022/03/16 04:05:15;;;;;;;24.67;16.43;;;;;;;2.09;79.23;101294.41;5103265;28;20469;-62
2022/03/16 04:07:43;;;;;;;23.47;17.60;;;;;;;1.99;79.73;101290.41;5103387;28;20439;-62
2022/03/16 04:10:10;;;;;;;24.47;15.60;;;;;;;1.97;79.84;101289.63;5103338;28;20495;-62
2022/03/16 04:12:38;;;;;;;24.80;17.03;;;;;;;2.00;80.07;101294.78;5102671;28;20439;-62
2022/03/16 04:15:05;;;;;;;30.90;17.63;;;;;;;2.10;80.54;101304.06;5103138;28;20519;-63
2022/03/16 04:17:32;;;;;;;23.00;17.80;;;;;;;2.20;80.41;101291.34;5102968;28;20450;-63
2022/03/16 04:19:58;;;;;;;20.33;18.10;;;;;;;2.24;79.93;101309.63;5102404;28;20436;-63
2022/03/16 04:22:26;;;;;;;28.00;19.40;;;;;;;2.21;79.57;101319.44;5102920;28;20830;-63
2022/03/16 04:24:54;;;;;;;22.57;17.00;;;;;;;2.18;79.11;101317.78;5102190;28;20446;-63
2022/03/16 04:27:21;;;;;;;27.20;18.47;;;;;;;2.25;79.22;101318.41;5102457;28;20471;-64
2022/03/16 04:29:48;;;;;;;22.80;17.00;;;;;;;2.37;78.98;101315.25;5102304;28;20533;-63
2022/03/16 04:32:14;;;;;;;25.27;18.83;;;;;;;2.34;78.80;101323.31;5102730;28;20512;-63
2022/03/16 04:34:41;;;;;;;24.97;18.03;;;;;;;2.37;78.63;101319.69;5103016;28;20470;-63
2022/03/16 04:37:08;;;;;;;22.90;17.33;;;;;;;2.36;78.63;101318.84;5102697;28;20505;-63
2022/03/16 04:39:35;;;;;;;28.73;16.57;;;;;;;2.42;78.55;101321.22;5103154;28;20457;-63
2022/03/16 04:42:03;;;;;;;23.97;17.40;;;;;;;2.39;78.58;101320.50;5101903;28;20540;-63
2022/03/16 04:44:30;;;;;;;25.07;18.37;;;;;;;2.22;78.85;101332.59;5102254;28;20515;-64
2022/03/16 04:46:56;;;;;;;25.47;16.30;;;;;;;1.88;79.87;101327.75;5102966;28;20478;-63
2022/03/16 04:49:23;;;;;;;25.57;17.77;;;;;;;1.78;80.73;101316.69;5101927;28;20462;-64
2022/03/16 04:51:50;;;;;;;23.20;16.90;;;;;;;1.64;80.75;101319.00;5102538;28;20482;-63
2022/03/16 04:54:16;;;;;;;22.97;15.50;;;;;;;1.52;81.17;101320.28;5102347;28;20492;-63
2022/03/16 04:56:43;;;;;;;23.00;15.97;;;;;;;1.65;81.16;101318.94;5102024;28;20530;-63
2022/03/16 04:59:11;;;;;;;23.97;16.30;;;;;;;1.63;80.96;101312.88;5101960;28;20455;-63
2022/03/16 05:01:38;;;;;;;19.30;15.10;;;;;;;1.81;80.65;101318.38;5102077;28;20523;-63
2022/03/16 05:04:05;;;;;;;23.70;15.40;;;;;;;1.63;81.03;101311.97;5102336;28;20447;-63
2022/03/16 05:06:31;;;;;;;22.97;17.33;;;;;;;1.56;81.47;101313.13;5101975;28;20463;-63
2022/03/16 05:08:58;;;;;;;24.73;17.17;;;;;;;1.55;81.35;101316.69;5102461;28;20463;-63
2022/03/16 05:11:24;;;;;;;24.60;16.90;;;;;;;1.41;81.88;101312.78;5100821;28;20536;-63
2022/03/16 05:13:51;;;;;;;26.73;17.17;;;;;;;1.47;81.92;101322.22;5101390;28;20451;-63
2022/03/16 05:16:19;;;;;;;25.80;18.67;;;;;;;1.44;83.09;101314.44;5101090;28;21017;-62
2022/03/16 05:18:46;;;;;;;24.60;15.93;;;;;;;1.27;83.67;101315.91;5103638;28;20471;-62
2022/03/16 05:21:13;;;;;;;24.17;18.10;;;;;;;1.40;84.06;101316.31;5101636;28;20470;-63
2022/03/16 05:23:40;;;;;;;31.33;19.00;;;;;;;1.42;83.83;101319.75;5099978;28;20443;-62
2022/03/16 05:26:07;;;;;;;24.73;18.60;;;;;;;1.33;83.65;101319.25;5094192;28;20440;-63
2022/03/16 05:28:34;;;;;;;26.23;18.03;;;;;;;1.34;83.91;101313.03;5093481;28;20455;-63
2022/03/16 05:31:01;;;;;;;25.43;18.03;;;;;;;1.30;84.55;101315.81;5097205;28;20487;-64
2022/03/16 05:33:29;;;;;;;21.83;16.07;;;;;;;1.41;84.69;101320.69;5084170;28;20436;-62
2022/03/16 05:35:56;;;;;;;24.47;18.10;;;;;;;1.46;84.63;101316.13;5101919;28;20459;-63
2022/03/16 05:38:23;;;;;;;31.30;19.47;;;;;;;1.25;84.77;101314.22;5101718;28;20538;-63
2022/03/16 05:40:50;;;;;;;27.33;19.70;;;;;;;1.32;85.38;101313.13;5100687;28;20481;-63
2022/03/16 05:43:17;;;;;;;31.00;19.40;;;;;;;1.33;85.44;101313.97;5100719;28;21009;-63
2022/03/16 05:45:43;;;;;;;23.77;18.43;;;;;;;1.30;85.62;101313.19;5101414;28;20526;-63
2022/03/16 05:48:10;;;;;;;32.23;19.93;;;;;;;1.44;85.11;101314.44;5101458;28;20443;-63
2022/03/16 05:50:40;;;;;;;32.60;21.97;;;;;;;1.49;84.91;101323.91;5100799;28;20478;-63
2022/03/16 05:53:07;;;;;;;30.60;19.50;;;;;;;1.67;84.84;101325.00;5101513;28;20427;-63
2022/03/16 05:55:34;;;;;;;27.97;18.70;;;;;;;1.77;84.46;101329.91;5100642;28;20868;-63
2022/03/16 05:58:00;;;;;;;30.93;19.33;;;;;;;1.90;84.14;101331.19;5096846;28;20458;-63
2022/03/16 06:00:27;;;;;;;27.07;18.83;;;;;;;2.11;83.80;101336.56;5104349;28;20461;-63
2022/03/16 06:02:54;;;;;;;32.87;19.83;;;;;;;2.31;83.61;101339.28;5103808;28;20447;-63
2022/03/16 06:05:21;;;;;;;30.27;22.13;;;;;;;2.44;83.26;101334.34;5100229;28;20447;-63
2022/03/16 06:07:49;;;;;;;29.90;20.60;;;;;;;2.71;82.96;101340.31;5100595;28;20447;-63
2022/03/16 06:10:17;;;;;;;28.37;20.23;;;;;;;3.00;82.52;101341.72;5100617;28;20481;-63
2022/03/16 06:12:55;;;;;;;33.57;22.27;;;;;;;3.95;81.23;101343.72;5099559;28;20493;-63
2022/03/16 06:15:22;;;;;;;32.77;22.20;;;;;;;4.65;78.04;101341.25;5094993;28;20512;-63
2022/03/16 06:17:49;;;;;;;29.80;20.60;;;;;;;5.45;74.85;101354.00;5100799;28;20436;-66
2022/03/16 06:20:15;;;;;;;28.43;18.97;;;;;;;5.89;73.39;101357.00;5100011;28;20444;-66
2022/03/16 06:22:42;;;;;;;31.53;21.20;;;;;;;6.65;72.46;101357.22;5099581;28;21271;-65
2022/03/16 06:25:10;;;;;;;30.57;19.00;;;;;;;7.19;67.92;101362.06;5100619;28;20442;-64
2022/03/16 06:27:37;;;;;;;26.07;18.77;;;;;;;7.10;65.53;101368.78;5099568;28;20451;-64
2022/03/16 06:30:05;;;;;;;26.43;17.73;;;;;;;6.78;64.88;101366.19;5088374;28;20478;-64
2022/03/16 06:32:31;;;;;;;24.23;15.90;;;;;;;6.45;65.60;101368.97;5084159;28;20440;-64
2022/03/16 06:34:58;;;;;;;20.40;15.50;;;;;;;6.36;65.82;101372.16;5099902;28;20534;-64
2022/03/16 06:37:25;;;;;;;23.07;15.53;;;;;;;6.82;65.97;101373.97;5100297;28;20475;-64
2022/03/16 06:39:51;;;;;;;16.53;13.63;;;;;;;7.64;63.84;101381.50;5100556;28;20466;-66
2022/03/16 06:42:20;;;;;;;18.50;12.63;;;;;;;8.59;61.35;101380.00;5087493;28;20498;-64
2022/03/16 06:44:46;;;;;;;18.70;14.30;;;;;;;9.18;58.45;101376.13;5097906;28;20552;-65
2022/03/16 06:47:13;;;;;;;16.83;13.17;;;;;;;9.51;56.79;101377.44;5090994;28;20438;-65
2022/03/16 06:49:40;;;;;;;21.13;13.50;;;;;;;10.16;55.31;101377.28;5077319;28;20451;-64
2022/03/16 06:52:07;;;;;;;16.67;13.17;;;;;;;11.39;51.33;101380.72;5077705;28;20487;-65
2022/03/16 06:54:34;;;;;;;16.90;12.63;;;;;;;12.57;47.84;101385.75;5085761;28;20451;-65
2022/03/16 06:57:01;;;;;;;15.53;12.80;;;;;;;12.92;47.12;101388.19;5089669;28;20458;-65
2022/03/16 06:59:29;;;;;;;16.20;12.77;;;;;;;13.86;44.82;101390.13;5090764;28;20455;-65
2022/03/16 07:01:55;;;;;;;15.53;11.50;;;;;;;14.66;43.40;101383.91;5102125;28;20451;-66
2022/03/16 07:04:22;;;;;;;14.80;11.50;;;;;;;14.12;42.74;101390.53;5102668;28;20423;-67
2022/03/16 07:06:50;;;;;;;15.50;11.97;;;;;;;13.70;44.86;101385.25;5101300;28;20541;-67
2022/03/16 07:09:17;;;;;;;15.40;12.83;;;;;;;14.16;43.89;101389.25;5102008;28;20459;-67
2022/03/16 07:11:44;;;;;;;16.93;12.30;;;;;;;14.63;42.55;101394.09;5102019;28;20512;-67
2022/03/16 07:16:56;;;;;;;15.13;11.70;;;;;;;14.92;41.48;101396.81;5102172;28;20438;-67
2022/03/16 07:19:23;;;;;;;16.57;11.67;;;;;;;15.58;40.48;101401.44;5091699;28;20462;-67
2022/03/16 07:21:50;;;;;;;16.50;12.60;;;;;;;16.08;39.59;101400.34;5081718;28;20448;-67
2022/03/16 07:24:16;;;;;;;16.43;13.43;;;;;;;16.15;38.98;101397.91;5089895;28;20436;-67
2022/03/16 07:26:44;;;;;;;18.13;13.27;;;;;;;16.63;38.67;101409.41;5100993;28;20435;-67
2022/03/16 07:29:10;;;;;;;16.57;13.13;;;;;;;16.82;38.52;101405.75;5097122;28;20448;-68
2022/03/16 07:31:37;;;;;;;16.90;13.77;;;;;;;17.71;36.74;101399.44;5081238;28;20510;-67
2022/03/16 07:34:05;;;;;;;18.33;13.70;;;;;;;17.91;35.84;101396.53;5089712;28;20451;-67
2022/03/16 07:36:33;;;;;;;18.00;14.53;;;;;;;16.36;38.05;101406.59;5087821;28;20881;-66
2022/03/16 07:39:00;;;;;;;19.00;14.27;;;;;;;15.25;40.39;101394.69;5081125;28;20531;-66
2022/03/16 07:41:27;;;;;;;19.33;14.23;;;;;;;15.05;41.67;101399.22;5079341;28;20479;-65
2022/03/16 07:43:54;;;;;;;21.07;14.93;;;;;;;15.42;40.60;101393.13;5080410;28;20481;-65
2022/03/16 07:46:21;;;;;;;14.90;12.97;;;;;;;15.32;41.25;101395.81;5079800;28;20796;-66
2022/03/16 07:48:47;;;;;;;19.10;14.07;;;;;;;15.49;41.30;101394.25;5079895;28;20474;-65
2022/03/16 07:51:15;;;;;;;17.00;13.50;;;;;;;16.65;39.74;101394.78;5079805;28;20515;-66
2022/03/16 07:53:42;;;;;;;16.13;13.60;;;;;;;17.02;38.06;101406.50;5086778;28;20484;-66
2022/03/16 07:56:09;;;;;;;14.93;13.00;;;;;;;17.31;37.92;101395.44;5100189;28;20984;-65
2022/03/16 07:58:38;;;;;;;17.37;14.60;;;;;;;16.23;39.95;101403.41;5084185;28;20966;-66
2022/03/16 08:01:05;;;;;;;18.73;14.67;;;;;;;15.71;41.28;101400.28;5079458;28;20849;-65
2022/03/16 08:03:31;;;;;;;18.83;15.47;;;;;;;11.86;50.13;101402.94;5088260;28;20455;-65
2022/03/16 08:05:58;;;;;;;21.30;15.07;;;;;;;13.82;47.31;101394.94;5076538;28;20493;-66
2022/03/16 08:08:26;;;;;;;21.07;15.47;;;;;;;15.30;43.13;101399.66;5080151;28;20473;-66
2022/03/16 08:10:53;;;;;;;16.93;14.33;;;;;;;15.93;42.38;101388.34;5096151;28;20540;-65
2022/03/16 08:13:19;;;;;;;21.70;15.90;;;;;;;15.43;42.72;101395.69;5096822;28;20458;-65
2022/03/16 08:15:46;;;;;;;17.37;14.03;;;;;;;14.39;44.97;101403.38;5100572;28;20427;-64
2022/03/16 08:18:13;;;;;;;20.13;14.90;;;;;;;15.04;44.50;101401.06;5098497;28;20449;-65
2022/03/16 08:20:40;;;;;;;18.90;15.40;;;;;;;12.67;48.81;101408.13;5087607;28;20455;-65
2022/03/16 08:23:06;;;;;;;20.40;16.07;;;;;;;12.35;50.71;101403.56;5080081;28;20440;-65
2022/03/16 08:25:35;;;;;;;20.40;15.60;;;;;;;12.01;52.56;101406.28;5098921;28;20447;-65
2022/03/16 08:28:01;;;;;;;21.03;15.27;;;;;;;11.95;53.07;101400.56;5083096;28;20766;-64
2022/03/16 08:30:28;;;;;;;21.43;15.93;;;;;;;12.48;52.34;101406.13;5079447;28;20778;-65
2022/03/16 08:32:55;;;;;;;20.40;15.90;;;;;;;12.60;51.91;101410.50;5079073;28;20868;-64
2022/03/16 08:35:22;;;;;;;20.67;15.53;;;;;;;12.99;50.81;101404.66;5083445;28;20652;-66
2022/03/16 08:37:49;;;;;;;20.03;14.37;;;;;;;13.92;49.19;101398.53;5101506;28;20985;-66
2022/03/16 08:40:16;;;;;;;21.50;16.23;;;;;;;14.90;46.77;101396.13;5099064;28;20578;-66
2022/03/16 08:42:45;;;;;;;19.67;15.63;;;;;;;14.58;46.48;101391.84;5098275;28;20482;-66
2022/03/16 08:45:11;;;;;;;19.20;15.00;;;;;;;15.40;45.18;101387.03;5099015;28;20458;-65
2022/03/16 08:47:38;;;;;;;18.43;14.27;;;;;;;15.92;43.81;101389.31;5089321;28;20435;-66
2022/03/16 08:50:07;;;;;;;22.80;15.50;;;;;;;16.32;42.61;101396.28;5078412;28;20423;-66
2022/03/16 08:52:33;;;;;;;19.37;15.43;;;;;;;15.02;45.32;101396.84;5082426;28;20530;-67
2022/03/16 08:55:00;;;;;;;18.57;14.70;;;;;;;15.48;45.12;101394.38;5097648;28;20427;-65
2022/03/16 08:57:28;;;;;;;19.00;15.03;;;;;;;15.05;45.42;101385.75;5093746;28;20459;-66
2022/03/16 08:59:56;;;;;;;17.77;14.87;;;;;;;14.19;48.08;101393.53;5087998;28;20474;-66
2022/03/16 09:02:22;;;;;;;20.87;14.87;;;;;;;16.53;43.61;101394.16;5099342;28;20447;-65
2022/03/16 09:04:50;;;;;;;22.33;16.17;;;;;;;16.33;43.16;101390.69;5098740;28;20428;-65
2022/03/16 09:07:17;;;;;;;19.93;14.73;;;;;;;17.08;41.10;101392.34;5099691;28;20536;-65
2022/03/16 09:09:44;;;;;;;17.13;13.50;;;;;;;15.25;45.08;101387.44;5099201;28;20490;-65
2022/03/16 09:12:11;;;;;;;20.00;14.50;;;;;;;14.46;46.70;101387.50;5098418;28;21058;-65
2022/03/16 09:14:38;;;;;;;19.10;15.40;;;;;;;14.93;46.21;101384.19;5099292;28;20450;-65
2022/03/16 09:17:07;;;;;;;23.77;16.47;;;;;;;15.36;45.75;101375.69;5099175;28;20461;-65
2022/03/16 09:19:34;;;;;;;20.50;16.50;;;;;;;15.97;44.62;101382.50;5098130;28;20480;-66
2022/03/16 09:22:02;;;;;;;22.10;16.10;;;;;;;16.40;43.25;101380.16;5096578;28;20477;-65
2022/03/16 09:24:29;;;;;;;20.30;14.70;;;;;;;16.71;42.86;101379.81;5090271;28;20440;-66
2022/03/16 09:26:59;;;;;;;20.50;15.80;;;;;;;17.35;40.86;101368.94;5078139;28;20483;-65
2022/03/16 09:29:27;;;;;;;24.23;14.43;;;;;;;15.72;44.67;101378.56;5084733;28;20471;-66
2022/03/16 09:31:53;;;;;;;19.43;15.50;;;;;;;14.98;46.63;101369.34;5094617;28;20486;-66
2022/03/16 09:34:21;;;;;;;19.70;14.57;;;;;;;14.76;47.40;101381.22;5097388;28;20459;-65
2022/03/16 09:36:48;;;;;;;23.20;15.47;;;;;;;14.33;48.48;101371.63;5098238;28;20462;-67
2022/03/16 09:39:15;;;;;;;19.30;15.10;;;;;;;16.04;44.57;101377.38;5098772;28;20921;-65
2022/03/16 09:41:42;;;;;;;18.47;14.50;;;;;;;16.54;43.60;101378.78;5097400;28;20508;-65
2022/03/16 09:44:10;;;;;;;20.70;14.50;;;;;;;15.92;44.71;101370.44;5098386;28;20463;-65
2022/03/16 09:46:39;;;;;;;22.47;14.30;;;;;;;15.32;44.75;101347.31;5098093;28;20431;-65
2022/03/16 09:49:07;;;;;;;19.60;13.87;;;;;;;16.40;43.23;101350.47;5097822;28;20442;-66
2022/03/16 09:51:38;;;;;;;20.80;16.10;;;;;;;16.20;43.74;101341.66;5098693;28;21119;-65
2022/03/16 09:54:05;;;;;;;22.90;15.93;;;;;;;16.52;43.17;101340.28;5099336;28;20439;-66
2022/03/16 09:56:33;;;;;;;18.77;14.30;;;;;;;14.94;45.29;101326.69;5098016;28;20450;-67
2022/03/16 09:59:00;;;;;;;20.20;15.20;;;;;;;15.43;45.82;101331.00;5093213;28;20472;-65
2022/03/16 10:01:27;;;;;;;18.10;14.37;;;;;;;16.81;42.27;101323.03;5088961;28;20503;-66
2022/03/16 10:03:55;;;;;;;19.20;14.77;;;;;;;16.61;41.97;101322.34;5078844;28;20479;-66
2022/03/16 10:06:23;;;;;;;21.13;15.37;;;;;;;16.12;41.87;101311.88;5077938;28;20524;-65
2022/03/16 10:14:15;;;;;;;21.50;13.77;;;;;;;17.16;40.86;101319.47;5083714;28;20501;-66
2022/03/16 10:19:46;;;;;;;18.87;14.93;;;;;;;15.62;43.39;101330.09;5080765;28;21121;-66
2022/03/16 10:22:13;;;;;;;22.63;16.20;;;;;;;15.33;43.32;101322.09;5086252;28;20803;-65
2022/03/16 10:24:43;;;;;;;23.47;17.90;;;;;;;15.18;43.20;101318.16;5089938;28;20503;-65
2022/03/16 10:27:09;;;;;;;24.70;16.40;;;;;;;14.79;44.07;101318.16;5078086;28;20428;-66
2022/03/16 10:29:36;;;;;;;24.43;16.13;;;;;;;15.60;42.95;101318.59;5087336;28;20505;-65
2022/03/16 10:32:04;;;;;;;22.50;16.63;;;;;;;13.50;46.72;101317.94;5082055;28;20487;-66
2022/03/16 10:34:32;;;;;;;24.37;15.93;;;;;;;14.69;45.48;101310.09;5087465;28;20440;-65
2022/03/16 10:37:00;;;;;;;25.50;16.10;;;;;;;14.26;46.17;101305.91;5099721;28;20936;-66
2022/03/16 10:39:33;;;;;;;19.73;14.40;;;;;;;14.98;45.03;101309.22;5102680;28;20431;-66
2022/03/16 10:47:57;;;;;;;19.17;14.27;;;;;;;15.93;43.05;101305.56;5102735;28;20418;-66
2022/03/16 10:50:23;;;;;;;20.20;15.23;;;;;;;14.52;45.12;101306.22;5101872;28;20941;-66
2022/03/16 10:52:51;;;;;;;21.63;14.37;;;;;;;14.99;44.36;101298.31;5102565;28;20512;-66
2022/03/16 10:55:18;;;;;;;19.93;15.53;;;;;;;14.30;44.43;101286.69;5103429;28;20522;-66
2022/03/16 10:57:48;;;;;;;18.27;14.73;;;;;;;15.27;42.95;101301.09;5099557;28;20471;-67
2022/03/16 11:00:15;;;;;;;23.73;14.30;;;;;;;15.33;42.84;101310.44;5091995;28;20491;-66
2022/03/16 11:02:44;;;;;;;20.43;13.93;;;;;;;15.53;43.46;101295.06;5084804;28;20474;-66
2022/03/16 11:05:11;;;;;;;22.13;14.10;;;;;;;15.77;42.46;101299.97;5101451;28;20443;-65
2022/03/16 11:07:40;;;;;;;17.03;12.63;;;;;;;15.74;42.15;101295.69;5102745;28;20472;-66
2022/03/16 11:10:08;;;;;;;19.00;13.47;;;;;;;15.72;42.22;101303.06;5102724;28;21204;-65
2022/03/16 11:15:22;;;;;;;17.37;13.13;;;;;;;16.22;41.19;101299.16;5095523;28;20496;-66
2022/03/16 11:17:51;;;;;;;17.57;12.80;;;;;;;15.76;42.47;101293.75;5093685;28;20439;-65
2022/03/16 11:20:19;;;;;;;20.63;13.00;;;;;;;16.01;42.32;101291.34;5094546;28;20461;-65
2022/03/16 11:25:33;;;;;;;24.00;12.67;;;;;;;15.62;43.02;101278.00;5087183;28;20446;-65
2022/03/16 11:28:00;;;;;;;20.23;13.53;;;;;;;14.92;43.57;101278.34;5101323;28;20458;-64
2022/03/16 11:30:30;;;;;;;18.90;12.70;;;;;;;14.90;43.45;101282.19;5101905;28;20472;-65
2022/03/16 11:32:59;;;;;;;17.70;13.10;;;;;;;14.69;44.79;101280.50;5101456;28;20485;-66
2022/03/16 11:35:31;;;;;;;17.90;13.20;;;;;;;14.68;43.00;101273.41;5101147;28;20444;-66
2022/03/16 11:38:01;;;;;;;14.67;11.50;;;;;;;14.17;44.90;101275.34;5096437;28;20478;-65